Balikesir, Turkey
Current Conditions -  °F | °C
As of 6:50 PM on Monday 26 Jan 2015 (Local Time) from LTBF Reporting Station
Rain Showers Rain Showers  
Wind Chill: 50°   Ceiling: 10000
Heat Index: 50°   Visibility: 6mi
Dew Point: 45°   Wind: 2mph
Humidity: 82%   Direction: 340°NNW
Pressure: 30.06"   Gusts: NA
Location:  39.65°N, 27.88°E
Report Text: LTBF 261550Z 34002KT 9999 -SHRA SCT033 BKN100 10/07 Q1018 NOSIG
Loading
Personal Weather Stations






























Interactive Weather Map New forecast layout! Learn more

10-Day Weather Forecast

Advertisements
Track Severe Weather on mobile